Time;durP1;ratioP1;P1;durP2;ratioP2;P2;SDS_P1;SDS_P2;PMS_P1;PMS_P2;Temp;Humidity;BMP_temperature;BMP_pressure;BME280_temperature;BME280_humidity;BME280_pressure;Samples;Min_cycle;Max_cycle;Signal;HPM_P1;HPM_P2
2021/09/24 00:02:03;;;;;;;;;13.75;13.00;;;;;18.91;57.80;101579.22;4980250;28;45314;-67
2021/09/24 00:04:31;;;;;;;;;11.25;11.25;;;;;18.94;57.83;101585.34;4967023;28;45431;-66
2021/09/24 00:06:56;;;;;;;;;14.50;12.75;;;;;19.06;57.43;101613.56;4979790;28;45507;-66
2021/09/24 00:09:22;;;;;;;;;11.00;11.00;;;;;19.03;57.75;101613.75;4980945;28;45258;-66
2021/09/24 00:11:47;;;;;;;;;11.25;11.25;;;;;18.93;57.84;101593.53;4980080;28;45201;-66
2021/09/24 00:14:13;;;;;;;;;17.75;16.50;;;;;18.80;57.60;101577.09;4980940;28;45231;-66
2021/09/24 00:16:41;;;;;;;;;15.00;15.00;;;;;18.81;57.99;101568.00;4981154;28;45194;-66
2021/09/24 00:19:06;;;;;;;;;11.25;10.25;;;;;18.96;57.74;101591.56;4980876;28;45429;-66
2021/09/24 00:21:32;;;;;;;;;16.25;14.75;;;;;18.62;57.65;101538.38;4979909;28;45438;-67
2021/09/24 00:23:58;;;;;;;;;17.50;15.25;;;;;18.99;57.73;101606.75;4979664;28;45525;-66
2021/09/24 00:26:24;;;;;;;;;17.25;16.50;;;;;18.84;57.71;101587.69;4979054;28;47029;-67
2021/09/24 00:28:58;;;;;;;;;15.00;14.00;;;;;18.70;57.86;101577.56;4979477;28;45600;-66
2021/09/24 00:31:25;;;;;;;;;17.50;13.25;;;;;18.81;57.74;101587.84;4981328;28;45315;-66
2021/09/24 00:33:54;;;;;;;;;14.25;14.25;;;;;18.76;58.39;101584.50;4980012;28;45660;-66
2021/09/24 00:36:19;;;;;;;;;16.00;16.00;;;;;18.65;58.21;101570.66;4980832;28;45458;-66
2021/09/24 00:38:45;;;;;;;;;16.50;16.00;;;;;18.79;58.05;101597.84;4979499;28;45374;-67
2021/09/24 00:41:10;;;;;;;;;16.25;16.25;;;;;18.80;58.66;101596.88;4979624;28;45457;-66
2021/09/24 00:43:36;;;;;;;;;16.50;15.50;;;;;18.64;58.15;101577.91;4979313;28;45589;-67
2021/09/24 00:46:04;;;;;;;;;17.75;16.00;;;;;18.67;58.47;101577.72;4980714;28;45510;-66
2021/09/24 00:48:30;;;;;;;;;16.75;15.00;;;;;18.55;58.58;101566.72;4980465;28;45436;-67
2021/09/24 00:50:58;;;;;;;;;14.50;14.50;;;;;18.68;58.74;101582.19;4979514;28;45363;-67
2021/09/24 00:53:25;;;;;;;;;17.25;14.50;;;;;18.63;58.74;101580.69;4979030;28;45498;-66
2021/09/24 00:55:51;;;;;;;;;8.75;7.75;;;;;18.61;58.62;101574.47;4979656;28;45970;-66
2021/09/24 00:58:16;;;;;;;;;16.00;15.00;;;;;18.62;58.86;101582.50;4977606;28;45369;-67
2021/09/24 01:00:42;;;;;;;;;15.75;14.50;;;;;18.30;59.25;101530.16;4973943;28;45259;-66
2021/09/24 01:03:07;;;;;;;;;15.00;14.75;;;;;18.35;59.21;101546.13;4980557;28;45621;-67
2021/09/24 01:05:33;;;;;;;;;18.25;17.00;;;;;18.33;59.13;101546.22;4979984;28;45369;-67
2021/09/24 01:08:00;;;;;;;;;16.75;16.50;;;;;18.30;59.36;101546.38;4978849;28;45519;-66
2021/09/24 01:10:25;;;;;;;;;17.25;15.50;;;;;18.47;59.69;101580.63;4968242;28;45315;-67
2021/09/24 01:12:51;;;;;;;;;21.00;17.75;;;;;18.11;59.83;101516.72;4977689;28;45155;-66
2021/09/24 01:15:18;;;;;;;;;16.50;14.75;;;;;18.47;59.86;101576.06;4978844;28;47239;-67
2021/09/24 01:17:45;;;;;;;;;13.25;13.00;;;;;18.45;59.98;101571.72;4973771;28;45430;-67
2021/09/24 01:20:12;;;;;;;;;16.75;14.25;;;;;18.24;59.58;101533.16;4970771;28;45432;-66
2021/09/24 01:22:38;;;;;;;;;19.25;19.25;;;;;18.49;60.04;101574.19;4978691;28;45422;-67
2021/09/24 01:25:06;;;;;;;;;20.00;18.50;;;;;18.41;59.96;101559.31;4979190;28;45596;-67
2021/09/24 01:27:33;;;;;;;;;19.00;17.50;;;;;18.26;60.02;101539.34;4977681;28;45534;-67
2021/09/24 01:29:59;;;;;;;;;15.75;14.00;;;;;18.42;59.73;101558.34;4980412;28;45300;-66
2021/09/24 01:32:24;;;;;;;;;17.50;17.00;;;;;18.28;59.91;101538.34;4980132;28;45213;-66
2021/09/24 01:34:52;;;;;;;;;17.00;16.75;;;;;18.50;59.80;101575.06;4980038;28;46222;-67
2021/09/24 01:37:20;;;;;;;;;21.50;19.00;;;;;18.40;59.67;101557.56;4979799;28;45761;-67
2021/09/24 01:39:46;;;;;;;;;12.50;12.50;;;;;18.13;59.81;101504.88;4975664;28;45269;-66
2021/09/24 01:42:15;;;;;;;;;15.25;13.75;;;;;18.38;60.28;101554.94;4980206;28;45236;-67
2021/09/24 01:44:40;;;;;;;;;15.75;11.50;;;;;18.19;60.09;101505.50;4979813;28;46543;-67
2021/09/24 01:47:06;;;;;;;;;16.00;14.50;;;;;18.50;59.96;101567.81;4980262;28;45408;-66
2021/09/24 01:49:31;;;;;;;;;13.75;12.75;;;;;18.42;60.00;101550.25;4978688;28;45498;-67
2021/09/24 01:51:57;;;;;;;;;10.75;9.75;;;;;18.40;60.04;101549.47;4979866;28;45385;-67
2021/09/24 01:54:23;;;;;;;;;13.50;11.50;;;;;18.21;60.09;101525.22;4978370;28;46992;-67
2021/09/24 01:56:48;;;;;;;;;12.25;12.25;;;;;18.07;60.65;101498.91;4978083;28;45513;-66
2021/09/24 01:59:14;;;;;;;;;9.00;7.75;;;;;18.24;60.64;101530.47;4979582;28;45455;-66
2021/09/24 02:01:39;;;;;;;;;10.00;9.00;;;;;18.23;60.37;101540.41;4980095;28;45336;-66
2021/09/24 02:04:05;;;;;;;;;8.50;8.50;;;;;18.29;60.70;101553.59;4978406;28;47399;-67
2021/09/24 02:06:31;;;;;;;;;13.00;10.75;;;;;18.18;60.27;101541.59;4978179;28;45261;-66
2021/09/24 02:08:59;;;;;;;;;9.50;8.00;;;;;18.12;60.68;101540.94;4978249;28;45376;-66
2021/09/24 02:11:24;;;;;;;;;9.75;9.00;;;;;18.07;61.13;101528.63;4979842;28;45253;-67
2021/09/24 02:13:50;;;;;;;;;12.00;11.00;;;;;18.13;60.66;101534.59;4979699;28;46060;-67
2021/09/24 02:16:15;;;;;;;;;8.00;8.00;;;;;18.28;60.64;101554.53;4976313;28;45715;-67
2021/09/24 02:18:41;;;;;;;;;11.25;11.25;;;;;18.02;60.71;101514.50;4966307;28;45315;-67
2021/09/24 02:21:08;;;;;;;;;5.00;5.00;;;;;18.45;60.78;101577.13;4978557;28;45248;-67
2021/09/24 02:23:37;;;;;;;;;11.00;11.00;;;;;18.31;60.75;101556.22;4978249;28;48612;-67
2021/09/24 02:26:04;;;;;;;;;7.00;7.00;;;;;18.26;60.77;101542.94;4975741;28;45252;-66
2021/09/24 02:28:35;;;;;;;;;8.00;8.00;;;;;18.28;60.89;101557.25;4988437;28;45293;-67
2021/09/24 02:31:00;;;;;;;;;10.00;10.00;;;;;18.07;61.33;101528.63;4983145;28;45250;-67
2021/09/24 02:33:26;;;;;;;;;6.25;6.25;;;;;18.11;60.89;101531.09;4982680;28;46009;-67
2021/09/24 02:35:52;;;;;;;;;5.50;5.00;;;;;17.94;61.29;101502.25;4982879;28;45317;-66
2021/09/24 02:38:20;;;;;;;;;10.75;10.25;;;;;18.04;61.48;101524.28;4981345;28;45266;-67
2021/09/24 02:40:46;;;;;;;;;10.00;8.50;;;;;17.96;61.42;101511.16;4982891;28;45490;-66
2021/09/24 02:43:11;;;;;;;;;10.00;8.25;;;;;18.26;61.85;101572.69;4980975;28;46105;-67
2021/09/24 02:45:36;;;;;;;;;10.25;9.25;;;;;18.02;61.44;101528.00;4982801;28;45518;-66
2021/09/24 02:48:02;;;;;;;;;9.50;9.50;;;;;17.82;61.53;101489.34;4982694;28;45375;-66
2021/09/24 02:50:30;;;;;;;;;9.25;8.75;;;;;18.23;61.56;101550.34;4981058;28;45831;-66
2021/09/24 02:52:55;;;;;;;;;10.25;9.50;;;;;18.24;61.29;101552.06;4982325;28;45892;-67
2021/09/24 02:55:21;;;;;;;;;6.25;6.25;;;;;18.10;61.47;101531.19;4980269;28;45268;-66
2021/09/24 02:57:47;;;;;;;;;9.50;6.50;;;;;18.02;61.36;101511.78;4980729;28;45562;-66
2021/09/24 03:00:15;;;;;;;;;11.50;10.75;;;;;18.12;61.81;101531.97;4992561;28;45390;-67
2021/09/24 03:02:44;;;;;;;;;10.25;10.00;;;;;18.04;61.93;101516.19;4982054;28;45773;-67
2021/09/24 03:05:13;;;;;;;;;9.25;7.75;;;;;18.31;61.52;101556.22;4982182;28;45501;-67
2021/09/24 03:07:39;;;;;;;;;5.75;5.75;;;;;18.32;61.59;101545.31;4981833;28;45237;-67
2021/09/24 03:10:06;;;;;;;;;8.50;7.00;;;;;18.12;61.49;101519.31;4982079;28;45211;-66
2021/09/24 03:12:35;;;;;;;;;6.75;5.75;;;;;18.18;61.66;101526.25;4980790;28;48170;-66
2021/09/24 03:15:00;;;;;;;;;5.25;4.75;;;;;18.18;61.75;101525.41;4981004;28;45778;-67
2021/09/24 03:17:26;;;;;;;;;4.25;4.25;;;;;18.04;61.46;101499.97;4982010;28;45444;-67
2021/09/24 03:19:51;;;;;;;;;5.75;5.75;;;;;18.09;61.71;101503.31;4981899;28;45411;-67
2021/09/24 03:22:17;;;;;;;;;5.00;5.00;;;;;18.32;61.48;101539.91;4981979;28;45390;-66
2021/09/24 03:24:44;;;;;;;;;6.50;6.50;;;;;18.13;61.71;101502.16;4981460;28;45162;-67
2021/09/24 03:27:12;;;;;;;;;3.75;3.00;;;;;18.39;61.87;101553.97;4981677;28;45307;-67
2021/09/24 03:29:38;;;;;;;;;6.25;5.25;;;;;18.34;61.76;101539.81;4982079;28;45345;-67
2021/09/24 03:32:04;;;;;;;;;4.50;3.25;;;;;18.12;61.78;101502.25;4980513;28;48417;-66
2021/09/24 03:34:30;;;;;;;;;4.00;4.00;;;;;18.01;61.88;101492.00;4980727;28;45633;-67
2021/09/24 03:36:55;;;;;;;;;4.50;4.25;;;;;17.96;61.81;101481.44;4981474;28;45435;-66
2021/09/24 03:39:24;;;;;;;;;6.25;6.00;;;;;18.12;61.48;101494.16;4980387;28;45257;-67
2021/09/24 03:41:52;;;;;;;;;5.75;5.75;;;;;18.14;61.55;101509.34;4980236;28;46327;-67
2021/09/24 03:44:17;;;;;;;;;6.50;5.50;;;;;18.28;62.05;101524.81;4981629;28;45676;-67
2021/09/24 03:46:50;;;;;;;;;4.75;4.25;;;;;18.32;62.25;101528.22;4980464;28;45451;-67
2021/09/24 03:49:15;;;;;;;;;8.75;6.75;;;;;18.35;61.77;101532.63;4981579;28;45453;-67
2021/09/24 03:51:43;;;;;;;;;5.25;5.25;;;;;18.35;62.25;101528.06;4979920;28;46657;-67
2021/09/24 03:54:08;;;;;;;;;8.25;5.75;;;;;18.20;61.97;101510.84;4980029;28;45397;-67
2021/09/24 03:56:34;;;;;;;;;2.25;2.25;;;;;18.18;61.90;101498.38;4969203;28;45813;-67
2021/09/24 03:58:59;;;;;;;;;5.00;4.00;;;;;18.45;62.29;101539.28;4977036;28;45590;-67
2021/09/24 04:01:25;;;;;;;;;3.00;3.00;;;;;18.46;61.81;101536.50;4979568;28;45425;-67
2021/09/24 04:03:50;;;;;;;;;3.25;3.25;;;;;18.25;62.15;101499.78;4960776;28;45389;-67
2021/09/24 04:06:16;;;;;;;;;4.25;4.25;;;;;18.45;62.27;101540.16;4966624;28;45706;-67
2021/09/24 04:08:41;;;;;;;;;3.00;3.00;;;;;18.23;61.97;101496.31;4971770;28;45966;-67
2021/09/24 04:11:09;;;;;;;;;5.25;4.75;;;;;18.20;62.21;101499.16;4981092;28;45309;-67
2021/09/24 04:13:34;;;;;;;;;5.25;5.25;;;;;18.07;61.72;101478.16;4981495;28;45285;-67
2021/09/24 04:16:02;;;;;;;;;5.25;3.50;;;;;18.28;62.00;101499.63;4981242;28;45246;-67
2021/09/24 04:18:27;;;;;;;;;4.75;4.75;;;;;18.33;62.38;101517.34;4981259;28;45383;-67
2021/09/24 04:20:53;;;;;;;;;5.50;3.75;;;;;18.28;62.46;101505.91;4980816;28;46177;-67
2021/09/24 04:23:18;;;;;;;;;5.75;5.75;;;;;18.27;62.32;101509.56;4981175;28;45400;-67
2021/09/24 04:25:44;;;;;;;;;7.00;6.00;;;;;18.20;62.46;101496.47;4980470;28;45415;-67
2021/09/24 04:28:10;;;;;;;;;7.75;6.50;;;;;18.27;62.29;101517.66;4979453;28;45455;-67
2021/09/24 04:30:35;;;;;;;;;6.00;4.00;;;;;18.19;62.43;101500.97;4980827;28;45322;-66
2021/09/24 04:33:01;;;;;;;;;3.50;3.50;;;;;18.17;62.46;101499.31;4981116;28;45327;-67
2021/09/24 04:35:28;;;;;;;;;4.00;4.00;;;;;18.21;62.36;101500.88;4980895;28;45236;-67
2021/09/24 04:37:57;;;;;;;;;6.00;4.25;;;;;18.17;62.63;101496.63;4980937;28;45474;-67
2021/09/24 04:40:25;;;;;;;;;5.75;5.75;;;;;18.18;62.81;101491.13;4980667;28;46544;-67
2021/09/24 04:42:50;;;;;;;;;4.50;4.50;;;;;18.33;62.61;101514.63;4980787;28;45563;-67
2021/09/24 04:45:16;;;;;;;;;6.25;5.25;;;;;18.22;62.59;101505.34;4980894;28;45189;-66
2021/09/24 04:47:42;;;;;;;;;4.75;4.00;;;;;18.45;62.58;101534.75;4978730;28;45727;-67
2021/09/24 04:50:09;;;;;;;;;5.00;5.00;;;;;18.42;62.76;101528.63;4980191;28;46411;-67
2021/09/24 04:52:34;;;;;;;;;3.00;3.00;;;;;18.15;62.81;101491.28;4980701;28;45234;-67
2021/09/24 04:55:02;;;;;;;;;5.75;5.75;;;;;18.29;62.97;101514.88;4978847;28;45684;-67
2021/09/24 04:57:28;;;;;;;;;5.25;5.25;;;;;18.15;62.62;101492.16;4980743;28;45928;-67
2021/09/24 04:59:53;;;;;;;;;6.75;5.00;;;;;18.21;63.31;101503.59;4979152;28;47175;-67
2021/09/24 05:02:21;;;;;;;;;5.00;5.00;;;;;18.38;62.60;101537.88;4979316;28;45410;-67
2021/09/24 05:04:46;;;;;;;;;6.25;4.75;;;;;18.38;63.03;101532.47;4979153;28;45312;-67
2021/09/24 05:07:12;;;;;;;;;4.50;4.50;;;;;18.00;63.15;101468.66;4980135;28;45638;-67
2021/09/24 05:09:41;;;;;;;;;4.75;4.75;;;;;18.40;62.82;101533.25;4980172;28;46314;-67
2021/09/24 05:12:07;;;;;;;;;6.50;6.50;;;;;18.34;63.05;101523.59;4980490;28;45434;-67
2021/09/24 05:14:33;;;;;;;;;8.75;5.50;;;;;18.26;63.18;101515.94;4980560;28;45427;-67
2021/09/24 05:16:58;;;;;;;;;8.00;6.75;;;;;18.01;62.93;101459.59;4978944;28;45538;-67
2021/09/24 05:19:25;;;;;;;;;7.00;6.00;;;;;18.28;63.39;101510.44;4980111;28;47165;-67
2021/09/24 05:21:50;;;;;;;;;6.00;5.75;;;;;18.29;63.27;101507.66;4962674;28;45676;-67
2021/09/24 05:24:16;;;;;;;;;7.25;6.00;;;;;18.18;63.60;101485.72;4978888;28;45440;-67
2021/09/24 05:26:41;;;;;;;;;8.00;7.75;;;;;18.12;63.23;101481.50;4986251;28;45341;-67
2021/09/24 05:29:07;;;;;;;;;12.50;10.00;;;;;18.32;63.06;101523.69;4978681;28;46211;-67
2021/09/24 05:31:33;;;;;;;;;8.25;6.75;;;;;18.14;63.13;101489.53;4980131;28;45275;-67
2021/09/24 05:34:02;;;;;;;;;2.25;0.50;;;;;18.20;63.71;101499.16;4978995;28;45415;-67
2021/09/24 05:36:30;;;;;;;;;11.00;6.50;;;;;18.15;63.53;101502.09;4979909;28;45331;-67
2021/09/24 05:38:58;;;;;;;;;12.25;10.75;;;;;18.11;63.75;101482.47;4979804;28;46196;-67
2021/09/24 05:41:23;;;;;;;;;7.25;7.25;;;;;18.25;63.41;101507.91;4974675;28;45378;-67
2021/09/24 05:43:50;;;;;;;;;7.75;6.00;;;;;18.10;63.81;101485.25;4959766;28;45353;-66
2021/09/24 05:46:19;;;;;;;;;9.25;9.25;;;;;18.31;63.74;101515.69;4973682;28;45512;-73
2021/09/24 05:48:45;;;;;;;;;9.75;6.75;;;;;18.14;63.32;101490.41;4979663;28;46679;-74
2021/09/24 05:51:11;;;;;;;;;7.25;7.25;;;;;18.09;63.40;101478.09;4975495;28;45349;-75
2021/09/24 05:53:36;;;;;;;;;6.00;6.00;;;;;18.35;63.41;101514.56;4979863;28;45364;-74
2021/09/24 05:56:02;;;;;;;;;9.25;9.25;;;;;18.20;63.39;101485.66;4966021;28;45375;-74
2021/09/24 05:58:28;;;;;;;;;7.50;7.50;;;;;18.34;63.06;101515.50;4977983;28;46732;-73
2021/09/24 06:00:53;;;;;;;;;9.50;8.25;;;;;18.09;63.95;101478.97;4981965;28;45463;-74
2021/09/24 06:03:20;;;;;;;;;9.00;9.00;;;;;18.28;63.91;101505.03;4982223;28;45667;-74
2021/09/24 06:05:45;;;;;;;;;12.25;9.75;;;;;18.26;63.60;101506.94;4982880;28;45532;-74
2021/09/24 06:08:10;;;;;;;;;11.25;11.25;;;;;18.17;63.60;101493.91;4981557;28;48183;-73
2021/09/24 06:10:38;;;;;;;;;9.00;8.50;;;;;18.29;63.71;101518.47;4981808;28;45726;-73
2021/09/24 06:13:07;;;;;;;;;10.75;10.75;;;;;18.14;64.10;101489.53;4973537;28;45447;-73
2021/09/24 06:15:33;;;;;;;;;9.50;8.50;;;;;18.26;63.65;101518.63;4977452;28;45256;-73
2021/09/24 06:17:59;;;;;;;;;11.75;11.50;;;;;18.25;64.21;101511.47;4980427;28;46093;-73
2021/09/24 06:20:24;;;;;;;;;10.50;10.00;;;;;18.14;63.94;101501.22;4981940;28;45240;-73
2021/09/24 06:22:50;;;;;;;;;11.00;9.00;;;;;18.32;63.83;101520.13;4982903;28;45201;-73
2021/09/24 06:25:17;;;;;;;;;8.00;6.50;;;;;18.39;64.09;101524.25;4982742;28;45384;-73
2021/09/24 06:27:43;;;;;;;;;10.75;9.75;;;;;18.18;63.95;101482.16;4981536;28;47392;-73
2021/09/24 06:30:12;;;;;;;;;5.00;4.50;;;;;18.28;64.02;101505.03;4982536;28;45486;-73
2021/09/24 06:32:38;;;;;;;;;12.25;9.25;;;;;18.37;64.16;101520.75;4981747;28;45281;-75
2021/09/24 06:35:05;;;;;;;;;11.75;9.50;;;;;18.21;64.06;101488.28;4982316;28;45226;-74
2021/09/24 06:37:30;;;;;;;;;12.00;10.00;;;;;18.35;63.90;101514.56;4982345;28;45700;-74
2021/09/24 06:39:56;;;;;;;;;10.75;8.50;;;;;18.07;63.91;101471.91;4981832;28;45388;-74
2021/09/24 06:42:21;;;;;;;;;12.00;12.00;;;;;18.28;64.18;101505.03;4982297;28;45508;-73
2021/09/24 06:44:47;;;;;;;;;11.50;7.25;;;;;18.31;64.17;101511.16;4982364;28;45440;-72
2021/09/24 06:47:15;;;;;;;;;14.75;12.25;;;;;18.24;64.19;101498.03;4980019;28;45613;-72
2021/09/24 06:49:41;;;;;;;;;9.50;9.00;;;;;18.37;63.87;101519.88;4980568;28;45324;-71
2021/09/24 06:52:39;;;;;;;;;;;;;;;;;;;;;
2021/09/24 06:55:38;;;;;;;;;;;;;;;;;;;;;
2021/09/24 06:58:35;;;;;;;;;19.75;16.00;;;;;18.06;64.36;101476.44;4980246;28;75235;-72
2021/09/24 07:01:49;;;;;;;;;13.50;13.50;;;;;18.35;64.39;101521.81;4979498;28;45466;-72
2021/09/24 07:07:48;;;;;;;;;12.75;12.50;;;;;18.41;64.04;101519.66;4958018;28;45593;-70
2021/09/24 07:10:26;;;;;;;;;10.25;10.25;;;;;18.33;64.30;101506.53;4988432;28;47679;-69
2021/09/24 07:12:57;;;;;;;;;12.00;12.00;;;;;18.05;63.95;101460.31;4976240;28;45742;-69
2021/09/24 07:15:22;;;;;;;;;16.50;12.25;;;;;18.34;64.20;101496.59;4970343;28;45498;-70
2021/09/24 07:17:48;;;;;;;;;11.50;10.00;;;;;18.34;64.09;101502.00;4980119;28;45527;-70
2021/09/24 07:38:21;;;;;;;;;22.00;19.00;;;;;18.30;64.20;101512.09;4667778;30;45669;-70
2021/09/24 07:40:46;;;;;;;;;15.00;14.00;;;;;18.20;64.24;101488.34;4752735;29;45296;-72
2021/09/24 07:43:12;;;;;;;;;15.50;15.00;;;;;18.24;64.32;101485.41;4873955;29;45698;-70
2021/09/24 07:45:38;;;;;;;;;19.25;18.25;;;;;18.39;64.57;101510.72;4976919;28;46411;-71
2021/09/24 07:48:04;;;;;;;;;18.75;14.75;;;;;18.30;64.55;101500.41;4980338;28;45383;-70
2021/09/24 07:50:30;;;;;;;;;19.50;17.25;;;;;18.07;64.33;101443.03;4976336;28;45820;-70
2021/09/24 07:52:55;;;;;;;;;19.25;18.75;;;;;18.17;64.52;101477.69;4977963;28;45624;-70
2021/09/24 07:55:22;;;;;;;;;23.50;20.00;;;;;18.16;64.24;101466.03;4980627;28;46166;-69
2021/09/24 07:57:55;;;;;;;;;22.75;21.25;;;;;18.37;64.51;101507.25;4980279;28;45561;-69
2021/09/24 08:00:23;;;;;;;;;18.25;17.50;;;;;18.23;64.08;101493.59;4980916;28;45454;-69
2021/09/24 08:02:53;;;;;;;;;19.75;17.25;;;;;18.37;64.30;101506.38;4972707;28;45610;-68
2021/09/24 08:05:19;;;;;;;;;22.50;21.00;;;;;18.28;64.49;101488.81;4973725;28;46237;-68
2021/09/24 08:13:53;;;;;;;;;28.00;20.00;;;;;18.35;64.28;101495.63;4968102;28;45848;-68
2021/09/24 08:16:40;;;;;;;;;16.75;15.00;;;;;18.41;64.46;101502.53;4969357;28;47379;-68
2021/09/24 08:19:33;;;;;;;;;;;;;;;;;;;;;
2021/09/24 08:22:02;;;;;;;;;21.50;19.00;;;;;18.29;64.08;101498.66;4976333;28;67164;-69
2021/09/24 08:25:07;;;;;;;;;;;;;;;;;;;;;
2021/09/24 08:27:50;;;;;;;;;;;;;;;;;;;;;
2021/09/24 08:31:05;;;;;;;;;21.50;16.75;;;;;18.29;64.23;101494.16;4977650;28;71836;-69
2021/09/24 08:37:49;;;;;;;;;20.00;18.50;;;;;18.46;64.12;101508.56;4966723;28;45330;-69
2021/09/24 08:44:23;;;;;;;;;18.25;18.25;;;;;18.66;63.81;101534.53;4951274;28;45588;-69
2021/09/24 08:47:29;;;;;;;;;20.50;19.50;;;;;18.43;64.19;101488.00;4955997;28;45869;-68
2021/09/24 08:50:10;;;;;;;;;;;;;;;;;;;;;
2021/09/24 08:52:49;;;;;;;;;19.50;18.25;;;;;18.55;63.79;101510.78;4955775;28;76747;-69
2021/09/24 08:55:20;;;;;;;;;18.25;17.50;;;;;18.73;63.71;101533.28;4963003;28;45765;-69
2021/09/24 08:57:46;;;;;;;;;16.25;14.00;;;;;18.51;63.47;101493.88;4962246;28;46599;-69
2021/09/24 09:00:13;;;;;;;;;16.00;14.25;;;;;18.46;63.76;101482.44;4965704;28;45470;-69
2021/09/24 09:02:55;;;;;;;;;15.50;14.25;;;;;18.56;63.39;101499.03;4976694;28;45548;-69
2021/09/24 09:05:22;;;;;;;;;20.75;18.00;;;;;18.65;63.53;101508.47;4979244;28;45548;-70
2021/09/24 09:07:48;;;;;;;;;18.50;17.00;;;;;18.79;63.50;101518.53;4978357;28;45545;-69
2021/09/24 09:10:15;;;;;;;;;16.75;15.25;;;;;18.73;63.92;101511.63;4977137;28;45569;-69
2021/09/24 09:12:40;;;;;;;;;18.75;17.25;;;;;18.53;63.92;101474.88;4964534;28;47660;-69
2021/09/24 09:15:37;;;;;;;;;;;;;;;;;;;;;
2021/09/24 09:43:20;;;;;;;;;13.50;13.50;;;;;19.03;62.85;101494.72;4107769;23;45862;-69
2021/09/24 10:20:41;;;;;;;;;16.75;14.00;;;;;19.41;62.43;101473.56;4684849;30;46344;-70
2021/09/24 10:23:07;;;;;;;;;12.25;12.25;;;;;19.44;61.97;101469.81;4680537;29;45719;-71
2021/09/24 10:25:39;;;;;;;;;15.25;15.00;;;;;19.78;61.93;101516.63;4923438;28;45537;-71
2021/09/24 10:28:06;;;;;;;;;15.00;14.50;;;;;19.63;61.64;101481.31;4997634;28;45269;-71
2021/09/24 10:30:34;;;;;;;;;18.25;14.25;;;;;19.64;61.24;101487.59;5000701;28;45395;-71
2021/09/24 10:33:06;;;;;;;;;15.25;14.00;;;;;19.58;62.00;101482.56;5002317;28;45483;-71
2021/09/24 10:35:53;;;;;;;;;18.00;13.75;;;;;19.57;61.20;101470.84;5002160;28;46698;-71
2021/09/24 10:38:32;;;;;;;;;14.50;12.50;;;;;19.77;61.76;101504.91;5000622;28;45574;-71
2021/09/24 10:41:04;;;;;;;;;16.25;13.75;;;;;19.77;61.59;101498.63;5000701;28;45439;-71
2021/09/24 10:43:47;;;;;;;;;13.75;12.25;;;;;19.82;61.38;101499.22;4993264;28;45511;-70
2021/09/24 10:46:24;;;;;;;;;10.75;10.75;;;;;19.92;61.11;101511.25;4984919;28;46459;-72
2021/09/24 10:49:11;;;;;;;;;12.50;12.50;;;;;19.96;60.74;101506.50;4992048;28;45994;-73
2021/09/24 10:51:38;;;;;;;;;16.00;14.00;;;;;19.80;61.18;101476.78;4992974;28;45841;-71
2021/09/24 10:54:20;;;;;;;;;12.25;12.25;;;;;19.86;61.01;101476.38;4985451;28;45555;-72
2021/09/24 10:57:06;;;;;;;;;13.25;13.25;;;;;19.79;60.53;101461.47;4991123;28;46323;-73
2021/09/24 10:59:35;;;;;;;;;11.75;11.50;;;;;19.75;60.67;101440.97;4987144;28;45560;-73
2021/09/24 11:02:39;;;;;;;;;17.00;10.75;;;;;20.13;60.35;101494.66;4996805;28;45717;-73
2021/09/24 11:05:07;;;;;;;;;16.50;14.00;;;;;19.96;60.00;101463.16;4993811;28;45755;-76
2021/09/24 11:07:34;;;;;;;;;14.25;12.25;;;;;20.13;60.01;101481.09;4997414;28;46190;-70
2021/09/24 11:10:00;;;;;;;;;12.00;10.75;;;;;20.20;60.57;101490.63;4998363;28;45375;-74
2021/09/24 11:12:28;;;;;;;;;11.00;10.00;;;;;19.83;60.23;101414.28;4997579;28;45556;-71
2021/09/24 11:15:06;;;;;;;;;14.25;12.25;;;;;20.29;60.18;101486.47;4996543;28;45440;-76
2021/09/24 11:17:43;;;;;;;;;12.25;12.25;;;;;19.96;59.44;101409.88;4997241;28;45527;-71
2021/09/24 11:20:29;;;;;;;;;14.25;13.00;;;;;20.38;59.78;101469.66;4997417;28;45878;-73
2021/09/24 11:22:55;;;;;;;;;13.75;12.25;;;;;20.18;59.49;101435.66;4997038;28;45848;-71
2021/09/24 11:25:21;;;;;;;;;12.75;9.25;;;;;20.22;59.18;101431.75;4997598;28;45575;-72
2021/09/24 11:27:48;;;;;;;;;16.25;15.50;;;;;20.16;59.13;101408.63;4995901;28;48087;-72
2021/09/24 11:34:07;;;;;;;;;;;;;;;;;;;;;
2021/09/24 11:36:57;;;;;;;;;9.50;9.50;;;;;20.57;59.40;101461.22;4990411;28;72723;-71
2021/09/24 11:39:29;;;;;;;;;14.50;12.50;;;;;20.63;59.09;101465.41;4993867;28;46692;-72
2021/09/24 15:16:43;;;;;;;;;;;;;;;;;;;;;
2021/09/24 15:19:41;;;;;;;;;;;;;;;;;;;;;
2021/09/24 15:22:29;;;;;;;;;;;;;;;;;;;;;
2021/09/24 15:24:58;;;;;;;;;10.50;10.50;;;;;21.72;52.71;101215.59;4960792;28;74425;-67
2021/09/24 15:27:28;;;;;;;;;12.00;10.00;;;;;21.75;52.74;101218.97;4960429;28;45434;-67
2021/09/24 15:30:06;;;;;;;;;10.00;10.00;;;;;21.98;52.85;101251.75;4943640;28;45285;-67
2021/09/24 15:32:39;;;;;;;;;13.25;13.25;;;;;21.88;52.78;101224.38;4961196;28;45366;-67
2021/09/24 15:35:10;;;;;;;;;13.25;12.00;;;;;21.91;52.71;101232.31;4961682;28;45674;-67
2021/09/24 15:37:52;;;;;;;;;;;;;;;;;;;;;
2021/09/24 15:43:08;;;;;;;;;11.75;11.50;;;;;22.02;53.19;101246.00;4952450;28;45519;-70
2021/09/24 15:45:34;;;;;;;;;12.75;11.50;;;;;22.02;52.63;101247.84;4962042;28;46457;-66
2021/09/24 15:48:00;;;;;;;;;12.00;10.75;;;;;21.93;52.54;101234.91;4957993;28;45410;-66
2021/09/24 15:50:26;;;;;;;;;6.00;6.00;;;;;21.97;53.00;101240.03;4957518;28;45472;-66
2021/09/24 15:52:52;;;;;;;;;11.50;11.25;;;;;21.88;53.27;101224.38;4957661;28;45529;-65
2021/09/24 15:55:17;;;;;;;;;10.00;8.75;;;;;21.95;53.38;101231.13;4942920;28;47888;-65
2021/09/24 15:57:43;;;;;;;;;12.00;12.00;;;;;21.91;52.81;101232.31;4958051;28;45508;-65
2021/09/24 16:00:13;;;;;;;;;11.75;10.75;;;;;22.02;53.07;101242.44;4957562;28;45507;-65
2021/09/24 16:02:40;;;;;;;;;13.75;12.25;;;;;21.83;53.18;101203.00;4957822;28;45852;-66
2021/09/24 16:05:06;;;;;;;;;14.25;13.75;;;;;21.93;53.12;101227.63;4957704;28;45749;-65
2021/09/24 16:07:32;;;;;;;;;12.50;12.50;;;;;21.88;52.84;101221.66;4957652;28;45563;-65
2021/09/24 16:09:57;;;;;;;;;14.50;12.25;;;;;21.88;53.02;101212.66;4958334;28;45806;-67
2021/09/24 16:12:23;;;;;;;;;11.50;9.25;;;;;22.05;53.08;101249.47;4961464;28;45408;-66
2021/09/24 16:14:48;;;;;;;;;11.00;11.00;;;;;22.05;53.39;101238.59;4930609;28;46111;-65
2021/09/24 16:17:14;;;;;;;;;11.75;10.75;;;;;21.99;53.38;101224.47;4960939;28;45508;-66
2021/09/24 16:19:39;;;;;;;;;11.50;10.00;;;;;22.06;53.09;101243.91;4960914;28;45434;-66
2021/09/24 16:22:15;;;;;;;;;14.50;12.00;;;;;21.91;53.33;101220.59;4960365;28;45564;-66
2021/09/24 16:25:03;;;;;;;;;12.00;10.75;;;;;21.94;53.28;101215.78;4960030;28;45432;-66
2021/09/24 16:27:34;;;;;;;;;15.50;12.75;;;;;21.94;53.08;101223.09;4960785;28;45471;-66
2021/09/24 16:30:23;;;;;;;;;14.25;11.25;;;;;21.99;53.08;101232.63;4960662;28;45484;-67
2021/09/24 16:32:49;;;;;;;;;11.25;10.25;;;;;21.84;52.81;101204.72;4958905;28;45454;-66
2021/09/24 16:35:15;;;;;;;;;12.00;10.50;;;;;21.95;52.96;101222.09;4958452;28;45443;-66
2021/09/24 16:37:43;;;;;;;;;14.00;11.75;;;;;21.83;52.91;101208.44;4943100;28;45325;-66
2021/09/24 16:40:18;;;;;;;;;10.00;10.00;;;;;21.95;53.04;101222.09;4960912;28;45438;-66
2021/09/24 16:42:47;;;;;;;;;12.00;11.50;;;;;22.06;52.77;101241.19;4958508;28;45441;-66
2021/09/24 16:45:16;;;;;;;;;13.50;13.00;;;;;21.91;53.11;101216.00;4949218;28;46212;-66
2021/09/24 16:51:41;;;;;;;;;11.50;10.75;;;;;21.91;52.99;101221.44;4881989;29;45834;-68
2021/09/24 16:54:09;;;;;;;;;13.00;12.50;;;;;21.87;53.26;101219.94;4881441;29;45226;-67
2021/09/24 16:56:37;;;;;;;;;17.00;14.50;;;;;21.87;53.67;101217.22;4941687;28;46182;-66
2021/09/24 16:59:03;;;;;;;;;11.75;10.75;;;;;22.00;53.56;101242.53;4959915;28;45770;-67
2021/09/24 17:01:28;;;;;;;;;15.25;14.50;;;;;21.99;53.28;101242.66;4960950;28;45442;-67
2021/09/24 17:03:53;;;;;;;;;16.25;12.00;;;;;22.01;53.49;101240.66;4960588;28;45353;-67